Time;durP1;ratioP1;P1;durP2;ratioP2;P2;SDS_P1;SDS_P2;PMS_P1;PMS_P2;Temp;Humidity;BMP_temperature;BMP_pressure;BME280_temperature;BME280_humidity;BME280_pressure;Samples;Min_cycle;Max_cycle;Signal;HPM_P1;HPM_P2
2023/07/25 00:01:05;;;;;;;13.30;5.10;;;12.60;99.90;;;;;;4964615;28;20035;-68
2023/07/25 00:03:30;;;;;;;12.00;5.43;;;12.60;99.90;;;;;;4955291;28;20058;-69
2023/07/25 00:05:56;;;;;;;13.05;4.75;;;12.60;99.90;;;;;;4955699;29;20047;-69
2023/07/25 00:08:22;;;;;;;12.07;5.10;;;12.60;99.90;;;;;;4955150;29;20046;-68
2023/07/25 00:10:48;;;;;;;12.40;5.15;;;12.60;99.90;;;;;;4969356;28;20545;-68
2023/07/25 00:13:13;;;;;;;8.95;4.88;;;12.60;99.90;;;;;;4955471;28;20028;-68
2023/07/25 00:15:39;;;;;;;10.55;5.28;;;12.50;99.90;;;;;;4956781;28;20105;-69
2023/07/25 00:18:05;;;;;;;12.57;5.40;;;12.50;99.90;;;;;;4968891;28;20409;-69
2023/07/25 00:20:31;;;;;;;11.35;5.60;;;12.40;99.90;;;;;;4959616;28;20045;-69
2023/07/25 00:22:57;;;;;;;13.20;5.30;;;12.30;99.90;;;;;;4957414;28;20049;-68
2023/07/25 00:25:22;;;;;;;8.93;5.30;;;12.30;99.90;;;;;;4968579;28;20042;-67
2023/07/25 00:27:48;;;;;;;12.18;5.60;;;12.30;99.90;;;;;;4946311;28;20106;-67
2023/07/25 00:30:14;;;;;;;14.13;5.57;;;12.20;99.90;;;;;;4954636;28;20039;-68
2023/07/25 00:32:39;;;;;;;10.38;5.25;;;12.20;99.90;;;;;;4953602;28;20043;-68
2023/07/25 00:35:05;;;;;;;8.57;5.20;;;12.30;99.90;;;;;;4954729;28;20042;-68
2023/07/25 00:37:31;;;;;;;12.13;5.28;;;12.30;99.90;;;;;;4954243;28;20047;-68
2023/07/25 00:39:57;;;;;;;12.32;5.75;;;12.30;99.90;;;;;;4955142;29;20553;-68
2023/07/25 00:42:23;;;;;;;19.23;5.43;;;12.30;99.90;;;;;;4951991;28;20062;-68
2023/07/25 00:44:49;;;;;;;10.77;5.32;;;12.30;99.90;;;;;;4992218;23;20046;-68
2023/07/25 00:47:16;;;;;;;9.73;5.30;;;12.40;99.90;;;;;;4974448;28;20066;-67
2023/07/25 00:49:42;;;;;;;11.20;5.10;;;12.30;99.90;;;;;;4971812;28;20050;-67
2023/07/25 00:52:09;;;;;;;8.20;5.13;;;12.30;99.90;;;;;;4988291;28;20038;-66
2023/07/25 00:54:38;;;;;;;12.63;5.85;;;12.30;99.90;;;;;;4969057;28;20096;-67
2023/07/25 00:57:05;;;;;;;14.40;5.55;;;12.30;99.90;;;;;;4992962;28;20129;-67
2023/07/25 00:59:30;;;;;;;14.52;5.60;;;12.20;99.90;;;;;;4955036;28;20176;-68
2023/07/25 01:01:56;;;;;;;11.90;5.95;;;12.20;99.90;;;;;;4991853;28;20117;-69
2023/07/25 01:04:23;;;;;;;13.40;5.72;;;12.20;99.90;;;;;;4984857;28;20038;-68
2023/07/25 01:06:49;;;;;;;12.30;5.65;;;12.20;99.90;;;;;;4981420;28;20047;-68
2023/07/25 01:09:15;;;;;;;11.55;5.85;;;12.20;99.90;;;;;;4968667;28;20043;-68
2023/07/25 01:11:41;;;;;;;12.43;5.38;;;12.10;99.90;;;;;;4987603;28;20127;-68
2023/07/25 01:14:07;;;;;;;13.40;5.47;;;12.10;99.90;;;;;;4985981;28;20481;-68
2023/07/25 01:16:34;;;;;;;11.43;5.50;;;12.10;99.90;;;;;;4983196;28;20033;-68
2023/07/25 01:19:00;;;;;;;16.27;5.60;;;12.10;99.90;;;;;;4984193;28;20057;-68
2023/07/25 01:21:26;;;;;;;10.18;5.65;;;12.00;99.90;;;;;;4992623;28;20089;-68
2023/07/25 01:23:52;;;;;;;13.93;5.82;;;12.00;99.90;;;;;;4970986;28;20049;-67
2023/07/25 01:26:18;;;;;;;10.02;5.50;;;12.00;99.90;;;;;;4985374;28;20030;-67
2023/07/25 01:28:43;;;;;;;11.10;5.55;;;11.90;99.90;;;;;;4987399;28;20405;-67
2023/07/25 01:31:09;;;;;;;11.07;5.53;;;11.80;99.90;;;;;;4993040;28;20496;-67
2023/07/25 01:33:34;;;;;;;10.73;5.80;;;11.80;99.90;;;;;;4980240;28;20390;-67
2023/07/25 01:36:01;;;;;;;14.05;5.53;;;11.70;99.90;;;;;;4982298;28;20039;-67
2023/07/25 01:38:26;;;;;;;13.32;5.65;;;11.70;99.90;;;;;;4991991;28;20129;-68
2023/07/25 01:40:52;;;;;;;11.10;5.72;;;11.60;99.90;;;;;;4959410;28;20476;-68
2023/07/25 01:43:18;;;;;;;12.73;5.80;;;11.60;99.90;;;;;;4964503;28;20463;-68
2023/07/25 01:45:43;;;;;;;10.32;4.80;;;11.60;99.90;;;;;;4987557;28;20038;-68
2023/07/25 01:48:09;;;;;;;11.10;5.65;;;11.60;99.90;;;;;;4992292;28;20030;-68
2023/07/25 01:50:35;;;;;;;10.70;5.38;;;11.60;99.90;;;;;;4988107;28;20421;-69
2023/07/25 01:53:00;;;;;;;10.25;4.97;;;11.50;99.90;;;;;;4965979;28;20039;-69
2023/07/25 01:55:26;;;;;;;10.70;5.82;;;11.50;99.90;;;;;;4984898;28;20821;-69
2023/07/25 01:57:51;;;;;;;9.77;5.22;;;11.50;99.90;;;;;;4971353;28;20101;-68
2023/07/25 02:00:17;;;;;;;11.45;5.53;;;11.40;99.90;;;;;;4968337;28;20137;-67
2023/07/25 02:02:42;;;;;;;12.25;5.72;;;11.40;99.90;;;;;;4987342;28;20053;-67
2023/07/25 02:05:08;;;;;;;14.07;5.95;;;11.40;99.90;;;;;;4975417;28;20046;-67
2023/07/25 02:07:34;;;;;;;16.80;6.22;;;11.40;99.90;;;;;;4981021;28;20195;-67
2023/07/25 02:09:59;;;;;;;10.80;5.65;;;11.40;99.90;;;;;;4981608;28;20039;-67
2023/07/25 02:12:26;;;;;;;10.57;5.72;;;11.40;99.90;;;;;;4992429;28;20065;-67
2023/07/25 02:14:51;;;;;;;9.95;5.10;;;11.40;99.90;;;;;;4977419;28;20035;-67
2023/07/25 02:17:19;;;;;;;14.80;5.47;;;11.40;99.90;;;;;;4982472;28;20042;-67
2023/07/25 02:19:45;;;;;;;11.73;5.60;;;11.30;99.90;;;;;;4987622;28;20035;-67
2023/07/25 02:22:11;;;;;;;11.07;5.22;;;11.30;99.90;;;;;;4987885;28;20038;-67
2023/07/25 02:24:37;;;;;;;9.63;5.72;;;11.30;99.90;;;;;;4975977;28;20630;-67
2023/07/25 02:27:03;;;;;;;15.27;5.60;;;11.40;99.90;;;;;;4981474;28;20035;-67
2023/07/25 02:29:28;;;;;;;12.00;5.60;;;11.50;99.90;;;;;;4991612;28;20121;-69
2023/07/25 02:31:54;;;;;;;11.30;5.97;;;11.50;99.90;;;;;;4980897;28;20035;-68
2023/07/25 02:34:19;;;;;;;13.63;5.28;;;11.50;99.90;;;;;;4962482;28;20504;-68
2023/07/25 02:36:45;;;;;;;11.00;5.35;;;11.60;99.90;;;;;;4955622;28;20050;-69
2023/07/25 02:39:11;;;;;;;13.07;6.10;;;11.60;99.90;;;;;;4976218;28;20034;-68
2023/07/25 02:41:36;;;;;;;10.15;5.60;;;11.70;99.90;;;;;;4991910;28;20034;-67
2023/07/25 02:44:03;;;;;;;11.98;6.13;;;11.70;99.90;;;;;;4987634;28;20114;-69
2023/07/25 02:46:29;;;;;;;12.10;5.22;;;11.70;99.90;;;;;;4973397;28;20550;-65
2023/07/25 02:48:55;;;;;;;15.13;5.65;;;11.70;99.90;;;;;;4962575;28;20043;-65
2023/07/25 02:51:20;;;;;;;17.58;6.22;;;11.70;99.90;;;;;;4987042;28;20113;-69
2023/07/25 02:53:46;;;;;;;13.60;5.40;;;11.70;99.90;;;;;;4996169;28;20046;-68
2023/07/25 02:56:11;;;;;;;13.48;5.88;;;11.70;99.90;;;;;;4982587;28;20070;-67
2023/07/25 02:58:37;;;;;;;10.20;5.30;;;11.70;99.90;;;;;;4964539;28;20518;-67
2023/07/25 03:01:03;;;;;;;10.80;5.50;;;11.70;99.90;;;;;;4970514;28;20050;-66
2023/07/25 03:03:29;;;;;;;13.90;5.88;;;11.70;99.90;;;;;;4989660;28;20084;-66
2023/07/25 03:05:54;;;;;;;13.10;5.97;;;11.70;99.90;;;;;;4986004;28;20044;-67
2023/07/25 03:08:20;;;;;;;14.43;5.50;;;11.70;99.90;;;;;;4991582;28;20045;-67
2023/07/25 03:10:45;;;;;;;10.93;5.63;;;11.70;99.90;;;;;;4976460;28;20039;-67
2023/07/25 03:13:11;;;;;;;14.65;5.80;;;11.70;99.90;;;;;;4979969;28;20436;-66
2023/07/25 03:15:37;;;;;;;12.52;5.70;;;11.70;99.90;;;;;;4964460;28;20096;-67
2023/07/25 03:18:02;;;;;;;12.30;5.63;;;11.70;99.90;;;;;;4969425;28;20069;-66
2023/07/25 03:20:28;;;;;;;10.50;5.82;;;11.70;99.90;;;;;;4988321;28;20107;-67
2023/07/25 03:22:54;;;;;;;13.02;5.68;;;11.70;99.90;;;;;;4991189;28;20129;-69
2023/07/25 03:25:19;;;;;;;11.57;5.82;;;11.80;99.90;;;;;;4986896;28;20408;-66
2023/07/25 03:27:45;;;;;;;10.85;5.28;;;11.80;99.90;;;;;;4993726;28;20515;-67
2023/07/25 03:30:11;;;;;;;13.75;6.00;;;11.80;99.90;;;;;;4974994;28;20035;-67
2023/07/25 03:32:36;;;;;;;8.77;5.22;;;11.80;99.90;;;;;;4971762;28;20042;-67
2023/07/25 03:35:02;;;;;;;10.40;5.57;;;11.80;99.90;;;;;;4986714;28;20038;-67
2023/07/25 03:37:28;;;;;;;11.75;5.45;;;11.70;99.90;;;;;;4991381;28;20034;-67
2023/07/25 03:39:54;;;;;;;14.13;5.65;;;11.70;99.90;;;;;;4991673;28;20080;-67
2023/07/25 03:42:19;;;;;;;11.40;5.15;;;11.70;99.90;;;;;;4986599;28;20404;-67
2023/07/25 03:44:45;;;;;;;8.68;5.32;;;11.70;99.90;;;;;;4994918;28;20041;-67
2023/07/25 03:47:10;;;;;;;14.48;5.65;;;11.70;99.90;;;;;;4963502;28;20042;-67
2023/07/25 03:49:36;;;;;;;10.32;5.78;;;11.60;99.90;;;;;;4987715;28;20042;-67
2023/07/25 03:52:02;;;;;;;12.30;5.82;;;11.60;99.90;;;;;;4990735;28;20066;-69
2023/07/25 03:54:27;;;;;;;11.95;5.47;;;11.60;99.90;;;;;;4957261;28;20046;-68
2023/07/25 03:56:53;;;;;;;12.85;5.63;;;11.60;99.90;;;;;;4960506;28;20042;-69
2023/07/25 03:59:19;;;;;;;11.77;5.70;;;11.50;99.90;;;;;;4985737;28;20035;-67
2023/07/25 04:01:44;;;;;;;14.98;5.45;;;11.50;99.90;;;;;;4977273;28;20472;-69
2023/07/25 04:04:10;;;;;;;11.90;5.35;;;11.50;99.90;;;;;;4984814;28;20090;-68
2023/07/25 04:06:38;;;;;;;10.38;4.97;;;11.50;99.90;;;;;;4976080;28;20081;-68
2023/07/25 04:09:04;;;;;;;10.60;5.25;;;11.50;99.90;;;;;;4985939;28;20089;-68
2023/07/25 04:11:30;;;;;;;14.23;5.35;;;11.50;99.90;;;;;;4989416;28;20034;-68
2023/07/25 04:13:55;;;;;;;12.10;5.35;;;11.50;99.90;;;;;;4985095;28;20085;-68
2023/07/25 04:16:22;;;;;;;10.50;5.50;;;11.60;99.90;;;;;;4993826;28;20464;-68
2023/07/25 04:18:47;;;;;;;11.23;4.68;;;11.60;99.90;;;;;;4986563;28;20053;-67
2023/07/25 04:21:13;;;;;;;12.27;5.20;;;11.70;99.90;;;;;;4990836;28;20121;-68
2023/07/25 04:23:39;;;;;;;13.93;4.68;;;11.80;99.90;;;;;;4988363;28;20073;-68
2023/07/25 04:26:04;;;;;;;12.45;5.25;;;11.80;99.90;;;;;;4970803;28;20053;-68
2023/07/25 04:28:30;;;;;;;11.00;5.30;;;11.90;99.90;;;;;;4976677;28;20109;-68
2023/07/25 04:30:55;;;;;;;7.93;5.18;;;12.00;99.90;;;;;;4982559;28;20035;-68
2023/07/25 04:33:21;;;;;;;12.85;5.38;;;12.00;99.90;;;;;;4993726;28;20641;-68
2023/07/25 04:35:47;;;;;;;9.98;5.25;;;12.00;99.90;;;;;;4976524;28;20046;-68
2023/07/25 04:38:15;;;;;;;10.00;5.57;;;12.10;99.90;;;;;;4986156;28;20042;-68
2023/07/25 04:40:44;;;;;;;9.20;5.63;;;12.10;99.90;;;;;;4987339;28;20050;-68
2023/07/25 04:43:10;;;;;;;12.55;6.00;;;12.20;99.90;;;;;;4990010;28;20516;-67
2023/07/25 04:45:37;;;;;;;12.23;5.50;;;12.30;99.90;;;;;;4977795;28;20093;-68
2023/07/25 04:48:03;;;;;;;15.35;6.15;;;12.30;99.90;;;;;;4982386;28;20070;-67
2023/07/25 04:50:28;;;;;;;17.38;6.10;;;12.40;99.90;;;;;;4993928;28;20170;-67
2023/07/25 04:52:54;;;;;;;12.07;5.82;;;12.50;99.90;;;;;;4989578;28;20062;-69
2023/07/25 04:55:20;;;;;;;13.05;5.75;;;12.60;99.90;;;;;;4982983;28;20404;-69
2023/07/25 04:57:45;;;;;;;8.90;5.55;;;12.60;99.90;;;;;;4977734;28;20049;-68
2023/07/25 05:00:11;;;;;;;16.77;6.10;;;12.70;99.90;;;;;;4986701;28;20043;-68
2023/07/25 05:02:37;;;;;;;11.27;5.90;;;12.70;99.90;;;;;;4955880;28;20042;-68
2023/07/25 05:05:03;;;;;;;9.63;5.88;;;12.80;99.90;;;;;;4982818;28;20073;-69
2023/07/25 05:07:28;;;;;;;16.70;6.50;;;12.90;99.90;;;;;;4975716;28;20174;-68
2023/07/25 05:09:54;;;;;;;16.20;6.15;;;12.90;99.90;;;;;;4982444;28;20043;-68
2023/07/25 05:12:19;;;;;;;15.48;6.32;;;13.00;99.90;;;;;;4989385;28;20396;-68
2023/07/25 05:14:45;;;;;;;11.68;5.90;;;13.00;99.90;;;;;;4988095;28;20084;-67
2023/07/25 05:17:10;;;;;;;11.85;6.10;;;13.10;99.90;;;;;;4987084;28;20034;-68
2023/07/25 05:19:36;;;;;;;14.07;6.38;;;13.30;99.90;;;;;;4989886;28;20733;-68
2023/07/25 05:22:02;;;;;;;15.02;6.30;;;13.40;99.90;;;;;;4984913;28;20039;-67
2023/07/25 05:24:28;;;;;;;18.25;6.30;;;13.50;99.90;;;;;;4975630;28;20054;-67
2023/07/25 05:26:54;;;;;;;12.70;5.78;;;13.60;99.90;;;;;;4980837;28;20449;-67
2023/07/25 05:29:19;;;;;;;13.40;6.30;;;13.70;99.90;;;;;;4983970;28;20027;-68
2023/07/25 05:31:45;;;;;;;11.95;6.07;;;13.80;99.90;;;;;;4973000;28;20078;-68
2023/07/25 05:34:10;;;;;;;14.50;5.82;;;13.90;99.90;;;;;;4973286;28;20749;-68
2023/07/25 05:36:36;;;;;;;13.90;6.60;;;14.10;99.90;;;;;;4982348;28;20113;-68
2023/07/25 05:39:02;;;;;;;11.30;5.10;;;14.20;99.90;;;;;;4980670;28;20043;-67
2023/07/25 05:41:27;;;;;;;12.38;5.88;;;14.30;99.90;;;;;;4971565;28;20050;-72
2023/07/25 05:43:53;;;;;;;13.73;5.40;;;14.40;99.90;;;;;;4943757;28;20046;-66
2023/07/25 05:46:18;;;;;;;10.52;5.00;;;14.60;99.90;;;;;;4951711;28;20520;-72
2023/07/25 05:48:44;;;;;;;11.05;5.45;;;14.70;99.90;;;;;;4961207;28;20046;-71
2023/07/25 05:51:10;;;;;;;14.85;4.03;;;14.80;99.90;;;;;;4955201;28;20077;-69
2023/07/25 05:53:36;;;;;;;10.85;3.50;;;14.90;99.90;;;;;;4950561;28;20118;-68
2023/07/25 05:56:02;;;;;;;9.63;4.40;;;15.00;99.90;;;;;;4966817;28;20118;-67
2023/07/25 05:58:28;;;;;;;10.45;3.17;;;15.00;99.90;;;;;;4971082;28;20038;-70
2023/07/25 06:00:53;;;;;;;11.43;3.58;;;15.10;99.90;;;;;;4962083;28;20046;-69
2023/07/25 06:03:19;;;;;;;12.85;3.78;;;15.10;99.90;;;;;;4971183;28;20043;-68
2023/07/25 06:05:45;;;;;;;7.28;3.42;;;15.10;99.90;;;;;;4965585;28;20046;-71
2023/07/25 06:08:10;;;;;;;11.75;3.55;;;15.10;99.90;;;;;;4952996;28;20031;-71
2023/07/25 06:10:36;;;;;;;9.43;3.22;;;15.00;99.90;;;;;;4969279;28;20076;-67
2023/07/25 06:13:06;;;;;;;10.07;3.20;;;15.00;99.90;;;;;;4971898;28;20042;-71
2023/07/25 06:15:34;;;;;;;9.35;3.38;;;15.00;99.90;;;;;;4963857;28;20050;-73
2023/07/25 06:18:03;;;;;;;7.82;2.85;;;15.10;99.90;;;;;;4959032;28;20089;-69
2023/07/25 06:20:33;;;;;;;8.45;2.90;;;15.10;99.90;;;;;;4975769;28;20042;-66
2023/07/25 06:22:59;;;;;;;8.77;2.90;;;15.10;99.90;;;;;;4962526;28;20057;-72
2023/07/25 06:25:26;;;;;;;8.35;3.20;;;15.10;99.90;;;;;;4951662;28;20050;-72
2023/07/25 06:27:52;;;;;;;6.82;2.60;;;15.10;99.90;;;;;;4967858;28;20047;-66
2023/07/25 06:30:17;;;;;;;9.18;2.80;;;15.10;99.90;;;;;;4969349;28;20049;-65
2023/07/25 06:32:43;;;;;;;11.82;3.08;;;15.10;99.90;;;;;;4953591;28;20043;-66
2023/07/25 06:35:08;;;;;;;9.27;2.67;;;15.00;99.90;;;;;;4974694;28;20073;-66
2023/07/25 06:37:35;;;;;;;8.98;3.28;;;15.00;99.90;;;;;;4978164;28;20043;-66
2023/07/25 06:40:01;;;;;;;9.30;2.97;;;15.10;99.90;;;;;;4971016;28;20548;-66
2023/07/25 06:42:28;;;;;;;11.55;2.95;;;15.10;99.90;;;;;;4979105;28;20035;-66
2023/07/25 06:44:54;;;;;;;10.77;2.80;;;15.10;99.90;;;;;;4980377;28;20050;-68
2023/07/25 06:47:20;;;;;;;7.00;2.42;;;15.20;99.90;;;;;;4980024;28;20031;-68
2023/07/25 06:49:45;;;;;;;8.50;2.40;;;15.30;99.90;;;;;;4980005;28;20556;-68
2023/07/25 06:52:11;;;;;;;7.15;2.83;;;15.30;99.90;;;;;;4981023;28;20043;-68
2023/07/25 06:54:37;;;;;;;9.75;2.72;;;15.30;99.90;;;;;;4981257;28;20035;-68
2023/07/25 06:57:03;;;;;;;11.32;2.55;;;15.40;99.90;;;;;;4977827;28;20109;-66
2023/07/25 06:59:29;;;;;;;7.07;2.60;;;15.40;99.90;;;;;;4980917;28;20485;-68
2023/07/25 07:01:56;;;;;;;10.18;2.30;;;15.40;99.90;;;;;;4982468;28;20038;-68
2023/07/25 07:04:21;;;;;;;7.85;2.40;;;15.50;99.90;;;;;;4981861;28;20057;-65
2023/07/25 07:06:47;;;;;;;8.18;2.40;;;15.50;99.90;;;;;;4968390;28;20042;-68
2023/07/25 07:09:13;;;;;;;7.85;2.33;;;15.60;99.90;;;;;;4960640;28;20050;-68
2023/07/25 07:11:40;;;;;;;5.95;2.38;;;15.60;99.90;;;;;;4971597;28;20046;-68
2023/07/25 07:14:06;;;;;;;8.75;2.22;;;15.70;99.90;;;;;;4955563;28;20877;-68
2023/07/25 07:16:31;;;;;;;7.13;1.98;;;15.70;99.90;;;;;;4972246;28;20049;-65
2023/07/25 07:18:59;;;;;;;4.95;2.10;;;15.70;99.90;;;;;;4967654;28;20747;-69
2023/07/25 07:21:25;;;;;;;7.18;2.10;;;15.70;99.90;;;;;;4955463;28;20043;-66
2023/07/25 07:23:51;;;;;;;8.55;2.15;;;15.70;99.90;;;;;;4970406;28;20093;-67
2023/07/25 07:26:17;;;;;;;6.20;1.70;;;15.80;99.90;;;;;;4973578;28;20042;-67
2023/07/25 07:28:42;;;;;;;6.95;2.35;;;15.80;99.90;;;;;;4978349;28;20462;-67
2023/07/25 07:31:09;;;;;;;6.40;2.83;;;15.90;99.90;;;;;;4969205;28;20050;-67
2023/07/25 07:33:35;;;;;;;8.63;2.45;;;15.80;99.90;;;;;;4953076;28;20042;-67
2023/07/25 07:36:01;;;;;;;5.00;1.50;;;15.90;99.90;;;;;;4970988;28;20074;-71
2023/07/25 07:38:26;;;;;;;7.25;1.70;;;15.90;99.90;;;;;;4976472;28;20121;-70
2023/07/25 07:40:52;;;;;;;4.57;1.95;;;15.90;99.90;;;;;;4967756;28;20054;-68
2023/07/25 07:43:18;;;;;;;4.82;1.80;;;15.90;99.90;;;;;;4975734;28;20105;-69
2023/07/25 07:45:44;;;;;;;6.60;2.08;;;16.00;99.90;;;;;;4978679;28;20042;-71
2023/07/25 07:48:09;;;;;;;6.43;1.73;;;16.00;99.90;;;;;;4974076;28;20271;-71
2023/07/25 07:50:35;;;;;;;8.05;1.60;;;16.00;99.90;;;;;;4967933;28;20046;-72
2023/07/25 07:53:01;;;;;;;4.93;2.00;;;16.10;99.90;;;;;;4974192;28;20039;-67
2023/07/25 07:55:27;;;;;;;3.38;1.50;;;16.20;99.90;;;;;;4969038;28;20085;-71
2023/07/25 07:57:52;;;;;;;4.75;1.50;;;16.30;99.90;;;;;;4962122;28;20580;-70
2023/07/25 08:00:19;;;;;;;3.72;1.60;;;16.40;99.90;;;;;;4987754;28;20125;-71
2023/07/25 08:02:44;;;;;;;4.00;1.48;;;16.40;99.90;;;;;;4979293;28;20035;-70
2023/07/25 08:05:11;;;;;;;3.97;1.50;;;16.40;99.90;;;;;;4935614;28;20655;-71
2023/07/25 08:07:38;;;;;;;8.38;1.70;;;16.50;99.90;;;;;;4931889;28;20054;-68
2023/07/25 08:10:04;;;;;;;4.82;1.65;;;16.60;99.90;;;;;;4980134;28;20109;-67
2023/07/25 08:12:30;;;;;;;9.85;2.08;;;16.60;99.90;;;;;;4953034;28;20665;-72
2023/07/25 08:14:56;;;;;;;6.43;1.58;;;16.80;99.90;;;;;;4943101;28;20042;-72
2023/07/25 08:17:22;;;;;;;4.30;1.15;;;16.90;99.90;;;;;;4950922;28;20038;-68
2023/07/25 08:19:48;;;;;;;3.85;1.42;;;17.10;99.90;;;;;;4956048;28;20562;-69
2023/07/25 08:22:14;;;;;;;6.35;1.30;;;17.30;99.90;;;;;;4973994;28;20092;-68
2023/07/25 08:24:40;;;;;;;5.53;1.40;;;17.20;99.90;;;;;;4978593;28;20042;-69
2023/07/25 08:27:07;;;;;;;3.97;1.65;;;17.20;99.90;;;;;;4957723;28;20047;-67
2023/07/25 08:29:33;;;;;;;4.47;1.30;;;17.40;99.90;;;;;;4934471;28;20601;-74
2023/07/25 08:31:58;;;;;;;4.50;1.20;;;17.60;99.90;;;;;;4916381;28;20047;-67
2023/07/25 08:34:24;;;;;;;5.32;1.40;;;17.70;99.90;;;;;;4964029;28;20465;-68
2023/07/25 08:36:50;;;;;;;8.25;1.33;;;17.70;99.90;;;;;;4973850;28;20134;-70
2023/07/25 08:39:15;;;;;;;5.90;1.42;;;17.70;99.90;;;;;;4965150;28;20129;-67
2023/07/25 08:41:50;;;;;;;6.05;1.20;;;17.70;99.90;;;;;;4984640;28;20121;-67
2023/07/25 08:44:19;;;;;;;2.55;1.25;;;17.70;99.90;;;;;;4993826;28;20053;-70
2023/07/25 08:46:45;;;;;;;6.18;1.52;;;17.70;99.90;;;;;;4982993;28;20137;-68
2023/07/25 08:49:15;;;;;;;3.65;1.60;;;17.70;99.90;;;;;;4987431;28;20049;-67
2023/07/25 08:51:43;;;;;;;6.82;1.40;;;17.80;99.90;;;;;;4959802;28;20034;-70
2023/07/25 08:54:15;;;;;;;6.60;1.50;;;17.80;99.90;;;;;;4962805;28;20044;-66
2023/07/25 08:56:42;;;;;;;5.80;1.33;;;17.90;99.90;;;;;;4963136;28;20121;-67
2023/07/25 08:59:08;;;;;;;2.72;1.02;;;17.90;99.90;;;;;;4967282;28;20104;-70
2023/07/25 09:01:34;;;;;;;5.28;1.30;;;18.00;99.90;;;;;;4992854;28;20045;-67
2023/07/25 09:04:01;;;;;;;7.82;1.60;;;18.10;99.90;;;;;;4966130;28;20050;-67
2023/07/25 09:06:29;;;;;;;5.35;1.30;;;18.00;99.90;;;;;;4963467;28;20409;-68
2023/07/25 09:08:54;;;;;;;3.88;1.30;;;18.00;99.90;;;;;;4968251;28;20082;-67
2023/07/25 09:11:20;;;;;;;2.75;1.13;;;17.90;99.90;;;;;;4972565;28;20142;-67
2023/07/25 09:13:48;;;;;;;3.17;0.93;;;18.00;99.90;;;;;;4953011;28;20422;-72
2023/07/25 09:16:14;;;;;;;6.35;1.50;;;18.20;99.90;;;;;;4971044;28;20043;-70
2023/07/25 09:18:40;;;;;;;2.03;1.10;;;18.30;99.90;;;;;;4954251;28;20125;-68
2023/07/25 09:21:06;;;;;;;4.47;1.35;;;18.50;99.90;;;;;;4962642;28;20043;-72
2023/07/25 09:23:32;;;;;;;3.53;1.23;;;18.80;99.90;;;;;;4975371;28;20097;-68
2023/07/25 09:26:06;;;;;;;3.47;1.00;;;18.70;99.90;;;;;;4962152;28;20046;-68
2023/07/25 09:28:32;;;;;;;4.28;1.30;;;18.80;99.90;;;;;;4954903;28;20054;-68
2023/07/25 09:31:01;;;;;;;2.42;0.90;;;18.90;99.90;;;;;;4978442;28;20050;-67
2023/07/25 09:33:28;;;;;;;3.80;1.30;;;19.00;99.90;;;;;;4945188;28;20050;-70
2023/07/25 09:35:54;;;;;;;6.72;1.42;;;19.10;99.90;;;;;;4962690;28;20497;-70
2023/07/25 09:38:20;;;;;;;5.13;1.30;;;19.00;99.90;;;;;;4964428;28;20039;-73
2023/07/25 09:40:46;;;;;;;3.13;1.63;;;18.80;99.90;;;;;;4956527;28;20058;-73
2023/07/25 09:43:25;;;;;;;4.65;1.40;;;18.70;99.90;;;;;;4954935;28;20332;-76
2023/07/25 09:45:51;;;;;;;4.90;1.33;;;18.40;99.90;;;;;;4938102;28;20043;-76
2023/07/25 09:48:17;;;;;;;7.32;1.30;;;18.30;99.90;;;;;;4971868;28;20140;-73
2023/07/25 09:50:44;;;;;;;4.47;1.50;;;18.30;99.90;;;;;;4950073;28;20042;-68
2023/07/25 09:53:17;;;;;;;3.25;1.08;;;18.50;99.90;;;;;;4943749;28;20073;-68
2023/07/25 09:55:45;;;;;;;4.47;1.00;;;18.80;99.90;;;;;;4959692;28;20485;-67
2023/07/25 09:58:11;;;;;;;3.35;1.02;;;18.90;99.90;;;;;;4942060;28;20051;-68
2023/07/25 10:00:37;;;;;;;4.07;1.30;;;18.90;99.90;;;;;;4944283;28;20047;-72
2023/07/25 10:03:03;;;;;;;1.23;0.80;;;18.90;99.90;;;;;;4954991;28;20140;-73
2023/07/25 10:05:29;;;;;;;2.08;0.90;;;19.10;99.90;;;;;;4941071;28;20047;-74
2023/07/25 10:07:56;;;;;;;4.68;1.33;;;19.30;99.90;;;;;;4957746;28;21044;-76
2023/07/25 10:10:22;;;;;;;3.35;1.13;;;19.20;99.90;;;;;;4972848;28;20034;-69
2023/07/25 10:12:48;;;;;;;2.92;0.88;;;19.30;99.90;;;;;;4972269;28;20523;-67
2023/07/25 10:15:15;;;;;;;2.05;1.02;;;19.20;99.90;;;;;;4958277;28;20049;-68
2023/07/25 10:17:40;;;;;;;2.30;1.10;;;19.00;99.90;;;;;;4974301;28;20053;-67
2023/07/25 10:20:07;;;;;;;2.17;1.20;;;18.70;99.90;;;;;;4964393;28;20047;-67
2023/07/25 10:22:37;;;;;;;3.60;1.30;;;18.60;99.90;;;;;;4958059;28;20520;-70
2023/07/25 10:25:16;;;;;;;5.55;1.13;;;18.90;99.90;;;;;;4979422;28;20347;-67
2023/07/25 10:27:42;;;;;;;1.65;0.70;;;19.20;99.90;;;;;;4955511;28;20117;-73
2023/07/25 10:30:44;;;;;;;3.25;1.33;;;19.40;99.90;;;;;;4957348;28;20039;-70
2023/07/25 10:33:12;;;;;;;2.38;0.95;;;19.30;96.40;;;;;;4947222;28;20053;-70
2023/07/25 10:35:54;;;;;;;2.42;1.00;;;19.60;99.50;;;;;;4969994;28;20378;-68
2023/07/25 10:38:42;;;;;;;4.93;1.10;;;19.70;97.60;;;;;;4953653;28;20117;-70
2023/07/25 10:41:08;;;;;;;3.25;1.45;;;19.30;99.50;;;;;;4946799;28;20082;-67
2023/07/25 10:43:46;;;;;;;2.25;1.00;;;19.40;99.90;;;;;;4951593;28;20135;-70
2023/07/25 10:46:17;;;;;;;5.70;1.20;;;19.70;97.60;;;;;;4970244;28;20528;-66
2023/07/25 10:48:45;;;;;;;2.08;1.10;;;20.10;98.80;;;;;;4959900;28;20038;-66
2023/07/25 10:51:13;;;;;;;6.25;1.15;;;20.30;99.40;;;;;;4977217;28;20092;-67
2023/07/25 10:53:39;;;;;;;3.22;1.20;;;20.20;98.60;;;;;;4971720;28;20497;-71
2023/07/25 10:56:05;;;;;;;2.40;1.10;;;19.80;98.60;;;;;;4975344;28;20050;-66
2023/07/25 10:58:35;;;;;;;2.40;1.00;;;19.50;97.10;;;;;;4965152;28;20042;-68
2023/07/25 11:01:01;;;;;;;3.95;1.00;;;19.20;97.70;;;;;;4961189;28;20108;-69
2023/07/25 11:03:29;;;;;;;4.30;1.00;;;19.30;96.70;;;;;;4960807;28;20045;-67
2023/07/25 11:06:14;;;;;;;4.35;1.27;;;19.50;97.80;;;;;;4963965;28;20104;-67
2023/07/25 11:08:41;;;;;;;6.10;1.25;;;19.70;94.50;;;;;;4967084;28;20057;-66
2023/07/25 11:11:12;;;;;;;1.65;1.08;;;20.00;97.20;;;;;;4967882;28;20180;-67
2023/07/25 11:13:40;;;;;;;4.15;0.95;;;20.40;97.30;;;;;;4953727;28;20194;-66
2023/07/25 11:16:07;;;;;;;1.65;0.90;;;20.40;95.20;;;;;;4977705;28;20058;-67
2023/07/25 11:18:35;;;;;;;4.85;1.30;;;20.60;95.50;;;;;;4986784;28;20144;-72
2023/07/25 11:21:03;;;;;;;4.40;1.10;;;20.20;95.40;;;;;;4981889;28;20110;-68
2023/07/25 11:23:29;;;;;;;4.28;1.10;;;19.90;96.10;;;;;;4981955;28;20035;-71
2023/07/25 11:25:57;;;;;;;3.75;1.38;;;19.50;96.80;;;;;;4982530;28;20041;-66
2023/07/25 11:28:22;;;;;;;6.32;1.60;;;19.30;97.60;;;;;;4965458;28;20449;-67
2023/07/25 11:30:48;;;;;;;3.25;1.30;;;19.10;98.20;;;;;;4962573;28;20586;-66
2023/07/25 11:33:14;;;;;;;4.22;1.52;;;19.10;98.30;;;;;;4979819;28;20390;-67
2023/07/25 11:35:39;;;;;;;4.75;1.50;;;19.50;98.60;;;;;;4994967;28;20129;-68
2023/07/25 11:38:05;;;;;;;3.53;1.30;;;19.90;97.80;;;;;;4986120;28;20038;-66
2023/07/25 11:40:31;;;;;;;3.80;1.92;;;20.10;98.00;;;;;;4990687;28;20057;-67
2023/07/25 11:42:57;;;;;;;4.10;1.30;;;20.00;97.90;;;;;;4975691;28;20145;-68
2023/07/25 11:45:24;;;;;;;2.83;1.30;;;19.70;97.50;;;;;;4990940;28;20026;-67
2023/07/25 11:47:51;;;;;;;2.85;1.20;;;19.70;97.30;;;;;;4974232;28;20034;-66
2023/07/25 11:50:18;;;;;;;3.83;1.35;;;19.70;97.60;;;;;;4964728;28;20125;-66
2023/07/25 11:52:45;;;;;;;2.25;1.10;;;19.70;97.20;;;;;;4965169;28;20089;-69
2023/07/25 11:55:12;;;;;;;3.15;1.40;;;19.50;97.20;;;;;;4977066;28;20424;-66
2023/07/25 11:57:40;;;;;;;2.83;1.15;;;19.40;97.50;;;;;;4982457;28;20121;-69
2023/07/25 12:00:09;;;;;;;5.47;1.20;;;19.60;97.90;;;;;;4977151;28;20489;-68
2023/07/25 12:02:39;;;;;;;2.63;1.20;;;19.50;97.50;;;;;;4987062;28;20042;-67
2023/07/25 12:05:06;;;;;;;2.80;1.20;;;19.40;97.60;;;;;;4986129;28;20130;-66
2023/07/25 12:07:52;;;;;;;3.58;1.20;;;19.30;98.20;;;;;;4969402;28;20307;-67
2023/07/25 12:10:35;;;;;;;4.88;1.60;;;19.20;97.00;;;;;;4979424;28;20382;-66
2023/07/25 12:13:08;;;;;;;5.32;1.23;;;19.50;96.30;;;;;;4976940;28;20047;-67
2023/07/25 12:15:45;;;;;;;4.15;1.50;;;19.80;97.20;;;;;;4985136;28;20042;-67
2023/07/25 12:18:32;;;;;;;3.88;1.27;;;20.10;96.50;;;;;;4980291;28;20039;-67
2023/07/25 12:20:59;;;;;;;2.15;1.10;;;20.60;94.40;;;;;;4982869;28;20074;-67
2023/07/25 12:23:38;;;;;;;3.00;1.33;;;20.80;95.90;;;;;;4993983;28;20067;-66
2023/07/25 12:26:05;;;;;;;2.10;0.93;;;20.60;95.80;;;;;;4973621;28;20128;-72
2023/07/25 12:28:42;;;;;;;2.53;1.15;;;20.40;96.00;;;;;;4974648;28;20522;-66
2023/07/25 12:31:07;;;;;;;2.63;0.90;;;20.10;94.50;;;;;;4981048;28;20038;-67
2023/07/25 12:33:33;;;;;;;2.30;1.10;;;20.00;96.60;;;;;;4984117;28;20049;-69
2023/07/25 12:36:00;;;;;;;3.25;0.98;;;19.70;96.20;;;;;;4982107;28;20394;-69
2023/07/25 12:38:26;;;;;;;2.95;1.17;;;19.40;96.60;;;;;;4975592;28;20038;-68
2023/07/25 12:40:52;;;;;;;6.22;1.15;;;19.30;96.90;;;;;;4989504;28;20042;-68